sensor_id;sensor_type;location;lat;lon;timestamp;P1;durP1;ratioP1;P2;durP2;ratioP2
3503;SDS011;1766;53.490;10.174;2023-04-03T00:01:35;8.10;;;1.63;;
3503;SDS011;1766;53.490;10.174;2023-04-03T00:03:39;5.77;;;1.47;;
3503;SDS011;1766;53.490;10.174;2023-04-03T00:05:42;4.53;;;1.77;;
3503;SDS011;1766;53.490;10.174;2023-04-03T00:07:44;8.13;;;1.70;;
3503;SDS011;1766;53.490;10.174;2023-04-03T00:09:46;4.97;;;1.40;;
3503;SDS011;1766;53.490;10.174;2023-04-03T00:11:48;3.10;;;1.50;;
3503;SDS011;1766;53.490;10.174;2023-04-03T00:13:50;5.73;;;1.90;;
3503;SDS011;1766;53.490;10.174;2023-04-03T00:15:52;4.03;;;1.50;;
3503;SDS011;1766;53.490;10.174;2023-04-03T00:17:54;4.80;;;1.43;;
3503;SDS011;1766;53.490;10.174;2023-04-03T00:19:57;5.77;;;1.47;;
3503;SDS011;1766;53.490;10.174;2023-04-03T00:21:59;8.37;;;1.77;;
3503;SDS011;1766;53.490;10.174;2023-04-03T00:24:01;4.27;;;1.73;;
3503;SDS011;1766;53.490;10.174;2023-04-03T00:26:03;3.50;;;1.47;;
3503;SDS011;1766;53.490;10.174;2023-04-03T00:28:05;6.20;;;1.80;;
3503;SDS011;1766;53.490;10.174;2023-04-03T00:30:08;7.73;;;1.57;;
3503;SDS011;1766;53.490;10.174;2023-04-03T00:32:14;8.10;;;1.43;;
3503;SDS011;1766;53.490;10.174;2023-04-03T00:34:16;6.83;;;1.83;;
3503;SDS011;1766;53.490;10.174;2023-04-03T00:36:19;4.40;;;2.23;;
3503;SDS011;1766;53.490;10.174;2023-04-03T00:38:21;6.03;;;1.53;;
3503;SDS011;1766;53.490;10.174;2023-04-03T00:40:24;6.73;;;2.00;;
3503;SDS011;1766;53.490;10.174;2023-04-03T00:42:32;6.10;;;1.80;;
3503;SDS011;1766;53.490;10.174;2023-04-03T00:47:20;7.03;;;1.87;;
3503;SDS011;1766;53.490;10.174;2023-04-03T00:49:22;6.40;;;1.50;;
3503;SDS011;1766;53.490;10.174;2023-04-03T00:51:25;3.53;;;1.50;;
3503;SDS011;1766;53.490;10.174;2023-04-03T00:53:29;7.93;;;1.83;;
3503;SDS011;1766;53.490;10.174;2023-04-03T00:55:35;6.50;;;1.90;;
3503;SDS011;1766;53.490;10.174;2023-04-03T00:57:38;5.33;;;1.47;;
3503;SDS011;1766;53.490;10.174;2023-04-03T00:59:43;7.90;;;1.33;;
3503;SDS011;1766;53.490;10.174;2023-04-03T01:01:49;6.40;;;1.50;;
3503;SDS011;1766;53.490;10.174;2023-04-03T01:03:52;7.13;;;1.90;;
3503;SDS011;1766;53.490;10.174;2023-04-03T01:05:54;4.30;;;1.63;;
3503;SDS011;1766;53.490;10.174;2023-04-03T01:07:57;6.83;;;1.60;;
3503;SDS011;1766;53.490;10.174;2023-04-03T01:10:00;6.17;;;1.40;;
3503;SDS011;1766;53.490;10.174;2023-04-03T01:12:14;3.87;;;1.80;;
3503;SDS011;1766;53.490;10.174;2023-04-03T01:14:17;6.20;;;1.73;;
3503;SDS011;1766;53.490;10.174;2023-04-03T01:16:19;5.70;;;1.90;;
3503;SDS011;1766;53.490;10.174;2023-04-03T01:18:21;9.60;;;1.80;;
3503;SDS011;1766;53.490;10.174;2023-04-03T01:23:14;3.50;;;1.60;;
3503;SDS011;1766;53.490;10.174;2023-04-03T01:25:25;7.20;;;1.77;;
3503;SDS011;1766;53.490;10.174;2023-04-03T01:27:27;9.00;;;1.60;;
3503;SDS011;1766;53.490;10.174;2023-04-03T01:29:29;5.40;;;1.77;;
3503;SDS011;1766;53.490;10.174;2023-04-03T01:31:31;6.77;;;2.30;;
3503;SDS011;1766;53.490;10.174;2023-04-03T01:33:53;4.10;;;1.50;;
3503;SDS011;1766;53.490;10.174;2023-04-03T01:35:56;5.13;;;1.30;;
3503;SDS011;1766;53.490;10.174;2023-04-03T01:37:58;8.90;;;1.63;;
3503;SDS011;1766;53.490;10.174;2023-04-03T01:40:00;5.33;;;1.90;;
3503;SDS011;1766;53.490;10.174;2023-04-03T01:42:02;6.00;;;1.60;;
3503;SDS011;1766;53.490;10.174;2023-04-03T01:44:04;3.17;;;1.43;;
3503;SDS011;1766;53.490;10.174;2023-04-03T01:46:06;6.00;;;1.67;;
3503;SDS011;1766;53.490;10.174;2023-04-03T01:48:10;5.67;;;1.80;;
3503;SDS011;1766;53.490;10.174;2023-04-03T01:50:11;4.73;;;1.50;;
3503;SDS011;1766;53.490;10.174;2023-04-03T01:52:13;9.00;;;1.97;;
3503;SDS011;1766;53.490;10.174;2023-04-03T01:54:15;7.43;;;2.30;;
3503;SDS011;1766;53.490;10.174;2023-04-03T01:56:18;8.00;;;1.53;;
3503;SDS011;1766;53.490;10.174;2023-04-03T01:58:20;3.93;;;1.70;;
3503;SDS011;1766;53.490;10.174;2023-04-03T02:02:28;4.63;;;1.50;;
3503;SDS011;1766;53.490;10.174;2023-04-03T02:04:31;5.50;;;1.70;;
3503;SDS011;1766;53.490;10.174;2023-04-03T02:06:34;3.67;;;2.00;;
3503;SDS011;1766;53.490;10.174;2023-04-03T02:08:36;8.77;;;1.93;;
3503;SDS011;1766;53.490;10.174;2023-04-03T02:10:37;7.23;;;1.70;;
3503;SDS011;1766;53.490;10.174;2023-04-03T02:12:39;8.00;;;2.20;;
3503;SDS011;1766;53.490;10.174;2023-04-03T02:14:41;11.00;;;2.03;;
3503;SDS011;1766;53.490;10.174;2023-04-03T02:16:43;3.80;;;1.33;;
3503;SDS011;1766;53.490;10.174;2023-04-03T02:18:45;5.57;;;1.80;;
3503;SDS011;1766;53.490;10.174;2023-04-03T02:20:48;6.57;;;1.90;;
3503;SDS011;1766;53.490;10.174;2023-04-03T02:22:50;6.77;;;1.53;;
3503;SDS011;1766;53.490;10.174;2023-04-03T02:24:52;4.93;;;1.47;;
3503;SDS011;1766;53.490;10.174;2023-04-03T02:26:53;9.03;;;1.43;;
3503;SDS011;1766;53.490;10.174;2023-04-03T02:28:55;8.37;;;1.60;;
3503;SDS011;1766;53.490;10.174;2023-04-03T02:30:57;8.20;;;1.90;;
3503;SDS011;1766;53.490;10.174;2023-04-03T02:32:59;6.50;;;1.63;;
3503;SDS011;1766;53.490;10.174;2023-04-03T02:35:01;10.47;;;1.70;;
3503;SDS011;1766;53.490;10.174;2023-04-03T02:37:04;4.97;;;1.80;;
3503;SDS011;1766;53.490;10.174;2023-04-03T02:39:06;5.27;;;1.27;;
3503;SDS011;1766;53.490;10.174;2023-04-03T02:41:10;3.90;;;1.40;;
3503;SDS011;1766;53.490;10.174;2023-04-03T02:43:13;6.30;;;1.40;;
3503;SDS011;1766;53.490;10.174;2023-04-03T02:45:14;5.03;;;1.43;;
3503;SDS011;1766;53.490;10.174;2023-04-03T02:47:16;4.73;;;1.10;;
3503;SDS011;1766;53.490;10.174;2023-04-03T02:49:18;4.67;;;1.40;;
3503;SDS011;1766;53.490;10.174;2023-04-03T02:51:20;7.97;;;1.70;;
3503;SDS011;1766;53.490;10.174;2023-04-03T02:53:24;6.37;;;1.30;;
3503;SDS011;1766;53.490;10.174;2023-04-03T02:55:26;3.67;;;1.30;;
3503;SDS011;1766;53.490;10.174;2023-04-03T02:57:27;4.23;;;1.53;;
3503;SDS011;1766;53.490;10.174;2023-04-03T02:59:29;6.37;;;1.33;;
3503;SDS011;1766;53.490;10.174;2023-04-03T03:01:31;7.40;;;1.43;;
3503;SDS011;1766;53.490;10.174;2023-04-03T03:03:33;3.47;;;0.87;;
3503;SDS011;1766;53.490;10.174;2023-04-03T03:05:35;5.63;;;1.33;;
3503;SDS011;1766;53.490;10.174;2023-04-03T03:07:37;5.30;;;1.80;;
3503;SDS011;1766;53.490;10.174;2023-04-03T03:09:40;4.37;;;1.07;;
3503;SDS011;1766;53.490;10.174;2023-04-03T03:11:41;5.17;;;1.67;;
3503;SDS011;1766;53.490;10.174;2023-04-03T03:13:43;4.67;;;1.47;;
3503;SDS011;1766;53.490;10.174;2023-04-03T03:15:45;3.33;;;1.20;;
3503;SDS011;1766;53.490;10.174;2023-04-03T03:17:47;2.47;;;1.40;;
3503;SDS011;1766;53.490;10.174;2023-04-03T03:19:48;5.77;;;1.20;;
3503;SDS011;1766;53.490;10.174;2023-04-03T03:21:50;6.23;;;1.40;;
3503;SDS011;1766;53.490;10.174;2023-04-03T03:23:52;6.87;;;1.83;;
3503;SDS011;1766;53.490;10.174;2023-04-03T03:25:56;7.50;;;1.33;;
3503;SDS011;1766;53.490;10.174;2023-04-03T03:27:58;8.47;;;1.60;;
3503;SDS011;1766;53.490;10.174;2023-04-03T03:30:00;6.20;;;1.30;;
3503;SDS011;1766;53.490;10.174;2023-04-03T03:32:02;3.77;;;1.20;;
3503;SDS011;1766;53.490;10.174;2023-04-03T03:34:04;5.00;;;1.10;;
3503;SDS011;1766;53.490;10.174;2023-04-03T03:36:06;9.60;;;1.63;;
3503;SDS011;1766;53.490;10.174;2023-04-03T03:38:08;1.90;;;1.10;;
3503;SDS011;1766;53.490;10.174;2023-04-03T03:40:10;5.93;;;1.40;;
3503;SDS011;1766;53.490;10.174;2023-04-03T03:42:20;8.43;;;1.40;;
3503;SDS011;1766;53.490;10.174;2023-04-03T03:44:22;6.60;;;1.10;;
3503;SDS011;1766;53.490;10.174;2023-04-03T03:46:24;7.10;;;1.67;;
3503;SDS011;1766;53.490;10.174;2023-04-03T03:48:25;7.00;;;1.80;;
3503;SDS011;1766;53.490;10.174;2023-04-03T03:50:27;3.47;;;1.10;;
3503;SDS011;1766;53.490;10.174;2023-04-03T03:52:29;9.43;;;2.00;;
3503;SDS011;1766;53.490;10.174;2023-04-03T03:54:31;7.90;;;1.27;;
3503;SDS011;1766;53.490;10.174;2023-04-03T03:56:33;2.27;;;1.20;;
3503;SDS011;1766;53.490;10.174;2023-04-03T03:58:36;6.57;;;1.00;;
3503;SDS011;1766;53.490;10.174;2023-04-03T04:00:39;5.70;;;1.50;;
3503;SDS011;1766;53.490;10.174;2023-04-03T04:02:40;4.40;;;1.50;;
3503;SDS011;1766;53.490;10.174;2023-04-03T04:04:42;2.93;;;1.10;;
3503;SDS011;1766;53.490;10.174;2023-04-03T04:06:44;7.80;;;1.37;;
3503;SDS011;1766;53.490;10.174;2023-04-03T04:08:46;3.03;;;1.00;;
3503;SDS011;1766;53.490;10.174;2023-04-03T04:10:48;3.47;;;1.50;;
3503;SDS011;1766;53.490;10.174;2023-04-03T04:12:49;7.03;;;1.23;;
3503;SDS011;1766;53.490;10.174;2023-04-03T04:14:53;4.67;;;1.50;;
3503;SDS011;1766;53.490;10.174;2023-04-03T04:16:54;4.63;;;1.63;;
3503;SDS011;1766;53.490;10.174;2023-04-03T04:18:56;4.93;;;1.40;;
3503;SDS011;1766;53.490;10.174;2023-04-03T04:20:58;16.00;;;2.90;;
3503;SDS011;1766;53.490;10.174;2023-04-03T04:23:00;6.80;;;1.73;;
3503;SDS011;1766;53.490;10.174;2023-04-03T04:25:02;2.83;;;1.67;;
3503;SDS011;1766;53.490;10.174;2023-04-03T04:27:04;7.40;;;1.50;;
3503;SDS011;1766;53.490;10.174;2023-04-03T04:29:08;6.70;;;1.70;;
3503;SDS011;1766;53.490;10.174;2023-04-03T04:31:11;7.13;;;1.50;;
3503;SDS011;1766;53.490;10.174;2023-04-03T04:33:13;7.43;;;1.73;;
3503;SDS011;1766;53.490;10.174;2023-04-03T04:35:16;4.90;;;1.87;;
3503;SDS011;1766;53.490;10.174;2023-04-03T04:37:18;5.60;;;1.70;;
3503;SDS011;1766;53.490;10.174;2023-04-03T04:39:20;6.40;;;1.67;;
3503;SDS011;1766;53.490;10.174;2023-04-03T04:41:21;8.20;;;1.80;;
3503;SDS011;1766;53.490;10.174;2023-04-03T04:43:24;6.73;;;1.57;;
3503;SDS011;1766;53.490;10.174;2023-04-03T04:45:26;3.73;;;1.30;;
3503;SDS011;1766;53.490;10.174;2023-04-03T04:47:29;5.50;;;1.70;;
3503;SDS011;1766;53.490;10.174;2023-04-03T04:49:31;6.73;;;2.27;;
3503;SDS011;1766;53.490;10.174;2023-04-03T04:51:32;5.00;;;1.80;;
3503;SDS011;1766;53.490;10.174;2023-04-03T04:53:34;5.97;;;2.07;;
3503;SDS011;1766;53.490;10.174;2023-04-03T04:55:36;5.87;;;2.20;;
3503;SDS011;1766;53.490;10.174;2023-04-03T04:57:38;8.83;;;2.47;;
3503;SDS011;1766;53.490;10.174;2023-04-03T04:59:40;8.57;;;3.77;;
3503;SDS011;1766;53.490;10.174;2023-04-03T05:01:41;8.37;;;3.60;;
3503;SDS011;1766;53.490;10.174;2023-04-03T05:03:45;5.37;;;2.73;;
3503;SDS011;1766;53.490;10.174;2023-04-03T05:05:47;10.27;;;3.30;;
3503;SDS011;1766;53.490;10.174;2023-04-03T05:07:49;7.63;;;2.60;;
3503;SDS011;1766;53.490;10.174;2023-04-03T05:09:51;8.60;;;3.43;;
3503;SDS011;1766;53.490;10.174;2023-04-03T05:11:53;5.10;;;3.00;;
3503;SDS011;1766;53.490;10.174;2023-04-03T05:13:56;9.30;;;3.83;;
3503;SDS011;1766;53.490;10.174;2023-04-03T05:15:58;7.60;;;2.97;;
3503;SDS011;1766;53.490;10.174;2023-04-03T05:17:59;7.33;;;3.47;;
3503;SDS011;1766;53.490;10.174;2023-04-03T05:20:03;8.53;;;2.87;;
3503;SDS011;1766;53.490;10.174;2023-04-03T05:22:06;9.03;;;3.40;;
3503;SDS011;1766;53.490;10.174;2023-04-03T05:24:07;7.53;;;3.43;;
3503;SDS011;1766;53.490;10.174;2023-04-03T05:26:09;12.17;;;3.63;;
3503;SDS011;1766;53.490;10.174;2023-04-03T05:28:11;6.07;;;3.50;;
3503;SDS011;1766;53.490;10.174;2023-04-03T05:30:13;17.53;;;4.60;;
3503;SDS011;1766;53.490;10.174;2023-04-03T05:32:16;9.10;;;4.47;;
3503;SDS011;1766;53.490;10.174;2023-04-03T05:34:18;11.70;;;3.93;;
3503;SDS011;1766;53.490;10.174;2023-04-03T05:36:21;15.93;;;5.27;;
3503;SDS011;1766;53.490;10.174;2023-04-03T05:38:23;10.20;;;6.07;;
3503;SDS011;1766;53.490;10.174;2023-04-03T05:40:25;8.87;;;4.17;;
3503;SDS011;1766;53.490;10.174;2023-04-03T05:42:27;13.80;;;4.07;;
3503;SDS011;1766;53.490;10.174;2023-04-03T05:44:28;13.30;;;4.13;;
3503;SDS011;1766;53.490;10.174;2023-04-03T05:46:30;10.43;;;4.07;;
3503;SDS011;1766;53.490;10.174;2023-04-03T05:48:33;8.97;;;4.53;;
3503;SDS011;1766;53.490;10.174;2023-04-03T05:50:35;6.40;;;3.93;;
3503;SDS011;1766;53.490;10.174;2023-04-03T05:52:43;7.27;;;4.00;;
3503;SDS011;1766;53.490;10.174;2023-04-03T05:54:48;13.47;;;5.40;;
3503;SDS011;1766;53.490;10.174;2023-04-03T05:56:50;11.03;;;4.63;;
3503;SDS011;1766;53.490;10.174;2023-04-03T05:58:53;10.20;;;4.27;;
3503;SDS011;1766;53.490;10.174;2023-04-03T06:00:55;9.23;;;4.70;;
3503;SDS011;1766;53.490;10.174;2023-04-03T06:02:57;16.83;;;9.30;;
3503;SDS011;1766;53.490;10.174;2023-04-03T06:04:58;11.70;;;5.47;;
3503;SDS011;1766;53.490;10.174;2023-04-03T06:07:01;9.43;;;4.53;;
3503;SDS011;1766;53.490;10.174;2023-04-03T06:09:04;10.80;;;4.40;;
3503;SDS011;1766;53.490;10.174;2023-04-03T06:11:06;6.63;;;4.57;;
3503;SDS011;1766;53.490;10.174;2023-04-03T06:13:08;9.03;;;4.30;;
3503;SDS011;1766;53.490;10.174;2023-04-03T06:15:10;8.70;;;4.13;;
3503;SDS011;1766;53.490;10.174;2023-04-03T06:17:12;7.47;;;4.70;;
3503;SDS011;1766;53.490;10.174;2023-04-03T06:19:14;7.37;;;4.20;;
3503;SDS011;1766;53.490;10.174;2023-04-03T06:21:16;8.60;;;4.50;;
3503;SDS011;1766;53.490;10.174;2023-04-03T06:23:18;7.40;;;4.07;;
3503;SDS011;1766;53.490;10.174;2023-04-03T06:25:21;11.87;;;4.10;;
3503;SDS011;1766;53.490;10.174;2023-04-03T06:27:32;5.67;;;3.63;;
3503;SDS011;1766;53.490;10.174;2023-04-03T06:29:34;8.80;;;3.27;;
3503;SDS011;1766;53.490;10.174;2023-04-03T06:31:37;5.43;;;2.83;;
3503;SDS011;1766;53.490;10.174;2023-04-03T06:33:38;7.30;;;2.57;;
3503;SDS011;1766;53.490;10.174;2023-04-03T06:35:40;11.37;;;2.83;;
3503;SDS011;1766;53.490;10.174;2023-04-03T06:37:42;6.47;;;3.03;;
3503;SDS011;1766;53.490;10.174;2023-04-03T06:39:44;5.53;;;2.40;;
3503;SDS011;1766;53.490;10.174;2023-04-03T06:41:47;5.67;;;2.43;;
3503;SDS011;1766;53.490;10.174;2023-04-03T06:43:50;6.77;;;2.50;;
3503;SDS011;1766;53.490;10.174;2023-04-03T06:45:51;8.80;;;2.43;;
3503;SDS011;1766;53.490;10.174;2023-04-03T06:47:53;4.43;;;2.30;;
3503;SDS011;1766;53.490;10.174;2023-04-03T06:49:55;4.63;;;2.10;;
3503;SDS011;1766;53.490;10.174;2023-04-03T06:51:57;6.23;;;2.00;;
3503;SDS011;1766;53.490;10.174;2023-04-03T06:53:59;3.87;;;1.50;;
3503;SDS011;1766;53.490;10.174;2023-04-03T06:56:02;9.80;;;2.57;;
3503;SDS011;1766;53.490;10.174;2023-04-03T06:58:06;2.03;;;1.40;;
3503;SDS011;1766;53.490;10.174;2023-04-03T07:00:10;4.17;;;1.40;;
3503;SDS011;1766;53.490;10.174;2023-04-03T07:02:14;5.80;;;0.93;;
3503;SDS011;1766;53.490;10.174;2023-04-03T07:04:16;3.50;;;1.40;;
3503;SDS011;1766;53.490;10.174;2023-04-03T07:06:20;2.17;;;1.20;;
3503;SDS011;1766;53.490;10.174;2023-04-03T07:08:22;2.40;;;1.20;;
3503;SDS011;1766;53.490;10.174;2023-04-03T07:10:26;5.53;;;1.20;;
3503;SDS011;1766;53.490;10.174;2023-04-03T07:12:27;1.40;;;0.90;;
3503;SDS011;1766;53.490;10.174;2023-04-03T07:14:31;2.90;;;1.20;;
3503;SDS011;1766;53.490;10.174;2023-04-03T07:16:33;2.27;;;1.10;;
3503;SDS011;1766;53.490;10.174;2023-04-03T07:18:37;2.87;;;1.20;;
3503;SDS011;1766;53.490;10.174;2023-04-03T07:20:40;1.47;;;0.70;;
3503;SDS011;1766;53.490;10.174;2023-04-03T07:22:42;2.57;;;0.87;;
3503;SDS011;1766;53.490;10.174;2023-04-03T07:24:44;4.80;;;1.13;;
3503;SDS011;1766;53.490;10.174;2023-04-03T07:26:48;5.13;;;1.37;;
3503;SDS011;1766;53.490;10.174;2023-04-03T07:28:50;6.37;;;0.87;;
3503;SDS011;1766;53.490;10.174;2023-04-03T07:30:54;5.63;;;0.90;;
3503;SDS011;1766;53.490;10.174;2023-04-03T07:33:03;4.40;;;1.20;;
3503;SDS011;1766;53.490;10.174;2023-04-03T07:35:05;3.70;;;0.77;;
3503;SDS011;1766;53.490;10.174;2023-04-03T07:37:07;4.80;;;0.70;;
3503;SDS011;1766;53.490;10.174;2023-04-03T07:39:09;2.93;;;0.83;;
3503;SDS011;1766;53.490;10.174;2023-04-03T07:41:12;4.10;;;0.90;;
3503;SDS011;1766;53.490;10.174;2023-04-03T07:43:17;1.40;;;1.00;;
3503;SDS011;1766;53.490;10.174;2023-04-03T07:45:21;2.20;;;1.07;;
3503;SDS011;1766;53.490;10.174;2023-04-03T07:47:25;7.97;;;2.50;;
3503;SDS011;1766;53.490;10.174;2023-04-03T07:49:26;2.70;;;0.90;;
3503;SDS011;1766;53.490;10.174;2023-04-03T07:51:28;2.03;;;0.73;;
3503;SDS011;1766;53.490;10.174;2023-04-03T07:53:31;4.07;;;0.93;;
3503;SDS011;1766;53.490;10.174;2023-04-03T07:55:33;2.00;;;0.80;;
3503;SDS011;1766;53.490;10.174;2023-04-03T07:57:40;2.20;;;0.60;;
3503;SDS011;1766;53.490;10.174;2023-04-03T07:59:42;3.80;;;0.80;;
3503;SDS011;1766;53.490;10.174;2023-04-03T08:01:44;2.73;;;0.50;;
3503;SDS011;1766;53.490;10.174;2023-04-03T08:03:47;4.00;;;1.00;;
3503;SDS011;1766;53.490;10.174;2023-04-03T08:05:49;3.60;;;0.73;;
3503;SDS011;1766;53.490;10.174;2023-04-03T08:07:53;5.67;;;0.87;;
3503;SDS011;1766;53.490;10.174;2023-04-03T08:09:55;3.30;;;0.70;;
3503;SDS011;1766;53.490;10.174;2023-04-03T08:11:57;3.80;;;0.70;;
3503;SDS011;1766;53.490;10.174;2023-04-03T08:13:58;3.40;;;0.70;;
3503;SDS011;1766;53.490;10.174;2023-04-03T08:16:09;4.03;;;1.00;;
3503;SDS011;1766;53.490;10.174;2023-04-03T08:18:13;2.53;;;0.60;;
3503;SDS011;1766;53.490;10.174;2023-04-03T08:20:16;1.23;;;0.77;;
3503;SDS011;1766;53.490;10.174;2023-04-03T08:22:18;2.10;;;1.10;;
3503;SDS011;1766;53.490;10.174;2023-04-03T08:24:20;3.10;;;0.97;;
3503;SDS011;1766;53.490;10.174;2023-04-03T08:26:22;0.77;;;0.63;;
3503;SDS011;1766;53.490;10.174;2023-04-03T08:28:26;1.67;;;0.67;;
3503;SDS011;1766;53.490;10.174;2023-04-03T08:30:28;2.60;;;0.77;;
3503;SDS011;1766;53.490;10.174;2023-04-03T08:32:30;0.93;;;0.60;;
3503;SDS011;1766;53.490;10.174;2023-04-03T08:34:32;3.53;;;0.80;;
3503;SDS011;1766;53.490;10.174;2023-04-03T08:36:36;2.97;;;0.90;;
3503;SDS011;1766;53.490;10.174;2023-04-03T08:38:38;3.40;;;0.70;;
3503;SDS011;1766;53.490;10.174;2023-04-03T08:40:40;5.00;;;0.63;;
3503;SDS011;1766;53.490;10.174;2023-04-03T08:42:46;0.90;;;0.60;;
3503;SDS011;1766;53.490;10.174;2023-04-03T08:44:58;3.43;;;0.47;;
3503;SDS011;1766;53.490;10.174;2023-04-03T08:47:11;1.67;;;0.70;;
3503;SDS011;1766;53.490;10.174;2023-04-03T08:49:25;1.57;;;0.50;;
3503;SDS011;1766;53.490;10.174;2023-04-03T08:51:31;2.93;;;0.67;;
3503;SDS011;1766;53.490;10.174;2023-04-03T08:53:35;1.33;;;0.37;;
3503;SDS011;1766;53.490;10.174;2023-04-03T08:55:43;2.47;;;0.70;;
3503;SDS011;1766;53.490;10.174;2023-04-03T08:57:46;1.07;;;0.43;;
3503;SDS011;1766;53.490;10.174;2023-04-03T08:59:54;0.30;;;0.30;;
3503;SDS011;1766;53.490;10.174;2023-04-03T09:01:58;1.43;;;0.40;;
3503;SDS011;1766;53.490;10.174;2023-04-03T09:04:09;0.93;;;0.47;;
3503;SDS011;1766;53.490;10.174;2023-04-03T09:06:15;0.70;;;0.43;;
3503;SDS011;1766;53.490;10.174;2023-04-03T09:08:22;3.10;;;0.80;;
3503;SDS011;1766;53.490;10.174;2023-04-03T09:10:28;1.10;;;0.60;;
3503;SDS011;1766;53.490;10.174;2023-04-03T09:12:36;1.13;;;0.40;;
3503;SDS011;1766;53.490;10.174;2023-04-03T09:14:41;3.27;;;0.40;;
3503;SDS011;1766;53.490;10.174;2023-04-03T09:16:54;3.07;;;0.50;;
3503;SDS011;1766;53.490;10.174;2023-04-03T09:18:59;1.87;;;0.47;;
3503;SDS011;1766;53.490;10.174;2023-04-03T09:21:13;2.00;;;0.63;;
3503;SDS011;1766;53.490;10.174;2023-04-03T09:23:22;1.73;;;0.50;;
3503;SDS011;1766;53.490;10.174;2023-04-03T09:25:32;2.27;;;0.63;;
3503;SDS011;1766;53.490;10.174;2023-04-03T09:27:38;1.10;;;0.40;;
3503;SDS011;1766;53.490;10.174;2023-04-03T09:29:41;1.80;;;0.50;;
3503;SDS011;1766;53.490;10.174;2023-04-03T09:31:46;1.70;;;0.60;;
3503;SDS011;1766;53.490;10.174;2023-04-03T09:33:52;1.10;;;0.70;;
3503;SDS011;1766;53.490;10.174;2023-04-03T09:35:58;3.57;;;0.93;;
3503;SDS011;1766;53.490;10.174;2023-04-03T09:38:00;3.40;;;1.20;;
3503;SDS011;1766;53.490;10.174;2023-04-03T09:42:40;1.27;;;0.50;;
3503;SDS011;1766;53.490;10.174;2023-04-03T09:44:44;1.10;;;0.40;;
3503;SDS011;1766;53.490;10.174;2023-04-03T09:46:56;0.73;;;0.50;;
3503;SDS011;1766;53.490;10.174;2023-04-03T09:48:59;2.03;;;0.90;;
3503;SDS011;1766;53.490;10.174;2023-04-03T09:51:03;1.27;;;0.80;;
3503;SDS011;1766;53.490;10.174;2023-04-03T09:53:06;2.30;;;1.10;;
3503;SDS011;1766;53.490;10.174;2023-04-03T09:55:14;1.83;;;0.60;;
3503;SDS011;1766;53.490;10.174;2023-04-03T09:57:21;1.07;;;0.50;;
3503;SDS011;1766;53.490;10.174;2023-04-03T09:59:23;1.20;;;0.63;;
3503;SDS011;1766;53.490;10.174;2023-04-03T10:01:26;0.70;;;0.40;;
3503;SDS011;1766;53.490;10.174;2023-04-03T10:03:32;0.83;;;0.40;;
3503;SDS011;1766;53.490;10.174;2023-04-03T10:05:37;2.03;;;0.60;;
3503;SDS011;1766;53.490;10.174;2023-04-03T10:07:40;3.37;;;1.03;;
3503;SDS011;1766;53.490;10.174;2023-04-03T10:09:43;1.10;;;0.50;;
3503;SDS011;1766;53.490;10.174;2023-04-03T10:11:58;2.73;;;0.90;;
3503;SDS011;1766;53.490;10.174;2023-04-03T10:14:15;0.90;;;0.90;;
3503;SDS011;1766;53.490;10.174;2023-04-03T10:16:18;1.60;;;0.40;;
3503;SDS011;1766;53.490;10.174;2023-04-03T10:18:29;1.73;;;0.50;;
3503;SDS011;1766;53.490;10.174;2023-04-03T10:20:42;1.57;;;0.53;;
3503;SDS011;1766;53.490;10.174;2023-04-03T10:22:54;1.00;;;0.70;;
3503;SDS011;1766;53.490;10.174;2023-04-03T10:25:09;1.13;;;0.50;;
3503;SDS011;1766;53.490;10.174;2023-04-03T10:27:27;0.80;;;0.60;;
3503;SDS011;1766;53.490;10.174;2023-04-03T10:29:45;2.47;;;0.70;;
3503;SDS011;1766;53.490;10.174;2023-04-03T10:31:56;2.57;;;0.70;;
3503;SDS011;1766;53.490;10.174;2023-04-03T10:34:15;0.87;;;0.50;;
3503;SDS011;1766;53.490;10.174;2023-04-03T10:36:25;0.97;;;0.70;;
3503;SDS011;1766;53.490;10.174;2023-04-03T10:38:41;1.50;;;0.57;;
3503;SDS011;1766;53.490;10.174;2023-04-03T10:40:55;2.70;;;0.60;;
3503;SDS011;1766;53.490;10.174;2023-04-03T10:43:06;1.03;;;0.40;;
3503;SDS011;1766;53.490;10.174;2023-04-03T10:45:20;1.40;;;0.47;;
3503;SDS011;1766;53.490;10.174;2023-04-03T10:47:29;1.23;;;0.70;;
3503;SDS011;1766;53.490;10.174;2023-04-03T10:49:42;3.50;;;1.20;;
3503;SDS011;1766;53.490;10.174;2023-04-03T10:51:55;2.43;;;1.03;;
3503;SDS011;1766;53.490;10.174;2023-04-03T10:54:05;0.73;;;0.40;;
3503;SDS011;1766;53.490;10.174;2023-04-03T10:56:13;2.77;;;0.63;;
3503;SDS011;1766;53.490;10.174;2023-04-03T10:58:20;2.03;;;0.67;;
3503;SDS011;1766;53.490;10.174;2023-04-03T11:00:35;2.87;;;0.50;;
3503;SDS011;1766;53.490;10.174;2023-04-03T11:02:41;2.43;;;0.57;;
3503;SDS011;1766;53.490;10.174;2023-04-03T11:04:53;0.70;;;0.67;;
3503;SDS011;1766;53.490;10.174;2023-04-03T11:07:02;1.77;;;0.60;;
3503;SDS011;1766;53.490;10.174;2023-04-03T11:09:15;1.73;;;0.60;;
3503;SDS011;1766;53.490;10.174;2023-04-03T11:11:24;3.20;;;0.63;;
3503;SDS011;1766;53.490;10.174;2023-04-03T11:13:32;0.30;;;0.30;;
3503;SDS011;1766;53.490;10.174;2023-04-03T11:15:38;3.27;;;0.50;;
3503;SDS011;1766;53.490;10.174;2023-04-03T11:17:41;1.37;;;0.30;;
3503;SDS011;1766;53.490;10.174;2023-04-03T11:19:52;2.30;;;0.80;;
3503;SDS011;1766;53.490;10.174;2023-04-03T11:22:08;1.73;;;0.60;;
3503;SDS011;1766;53.490;10.174;2023-04-03T11:24:21;2.47;;;0.60;;
3503;SDS011;1766;53.490;10.174;2023-04-03T11:26:27;1.20;;;0.40;;
3503;SDS011;1766;53.490;10.174;2023-04-03T11:28:33;2.00;;;0.60;;
3503;SDS011;1766;53.490;10.174;2023-04-03T11:30:39;2.87;;;0.60;;
3503;SDS011;1766;53.490;10.174;2023-04-03T11:32:54;4.60;;;2.57;;
3503;SDS011;1766;53.490;10.174;2023-04-03T11:35:19;4.27;;;1.23;;
3503;SDS011;1766;53.490;10.174;2023-04-03T11:37:24;2.03;;;0.50;;
3503;SDS011;1766;53.490;10.174;2023-04-03T11:39:30;1.03;;;0.40;;
3503;SDS011;1766;53.490;10.174;2023-04-03T11:41:35;3.50;;;0.70;;
3503;SDS011;1766;53.490;10.174;2023-04-03T11:43:39;2.30;;;0.50;;
3503;SDS011;1766;53.490;10.174;2023-04-03T11:45:50;2.37;;;0.70;;
3503;SDS011;1766;53.490;10.174;2023-04-03T11:47:59;1.77;;;0.60;;
3503;SDS011;1766;53.490;10.174;2023-04-03T11:50:03;3.30;;;0.83;;
3503;SDS011;1766;53.490;10.174;2023-04-03T11:52:07;0.90;;;0.57;;
3503;SDS011;1766;53.490;10.174;2023-04-03T11:56:46;1.00;;;0.67;;
3503;SDS011;1766;53.490;10.174;2023-04-03T12:08:56;0.63;;;0.40;;
3503;SDS011;1766;53.490;10.174;2023-04-03T12:13:17;2.00;;;0.87;;
3503;SDS011;1766;53.490;10.174;2023-04-03T12:15:21;1.10;;;0.53;;
3503;SDS011;1766;53.490;10.174;2023-04-03T12:17:43;1.57;;;0.60;;
3503;SDS011;1766;53.490;10.174;2023-04-03T12:19:45;2.67;;;0.67;;
3503;SDS011;1766;53.490;10.174;2023-04-03T12:24:23;2.60;;;0.63;;
3503;SDS011;1766;53.490;10.174;2023-04-03T12:26:29;0.97;;;0.50;;
3503;SDS011;1766;53.490;10.174;2023-04-03T12:28:38;1.80;;;0.63;;
3503;SDS011;1766;53.490;10.174;2023-04-03T12:30:40;1.47;;;0.53;;
3503;SDS011;1766;53.490;10.174;2023-04-03T12:32:48;1.97;;;1.47;;
3503;SDS011;1766;53.490;10.174;2023-04-03T12:35:18;0.87;;;0.43;;
3503;SDS011;1766;53.490;10.174;2023-04-03T12:37:37;1.03;;;0.60;;
3503;SDS011;1766;53.490;10.174;2023-04-03T12:39:52;1.77;;;0.57;;
3503;SDS011;1766;53.490;10.174;2023-04-03T12:42:09;0.93;;;0.47;;
3503;SDS011;1766;53.490;10.174;2023-04-03T12:44:26;3.27;;;0.70;;
3503;SDS011;1766;53.490;10.174;2023-04-03T12:46:42;1.10;;;0.70;;
3503;SDS011;1766;53.490;10.174;2023-04-03T12:48:49;1.53;;;0.53;;
3503;SDS011;1766;53.490;10.174;2023-04-03T12:50:53;2.73;;;0.67;;
3503;SDS011;1766;53.490;10.174;2023-04-03T12:52:57;1.17;;;0.40;;
3503;SDS011;1766;53.490;10.174;2023-04-03T12:55:03;1.73;;;0.60;;
3503;SDS011;1766;53.490;10.174;2023-04-03T12:57:17;2.85;;;0.65;;
3503;SDS011;1766;53.490;10.174;2023-04-03T12:59:21;0.90;;;0.70;;
3503;SDS011;1766;53.490;10.174;2023-04-03T13:01:25;2.97;;;0.77;;
3503;SDS011;1766;53.490;10.174;2023-04-03T13:03:27;1.85;;;0.80;;
3503;SDS011;1766;53.490;10.174;2023-04-03T13:05:31;3.78;;;0.70;;
3503;SDS011;1766;53.490;10.174;2023-04-03T13:07:35;1.70;;;0.57;;
3503;SDS011;1766;53.490;10.174;2023-04-03T13:09:40;2.28;;;0.60;;